createdAt,value
2022-12-20T00:02:10.287Z,99897.97
2022-12-20T00:07:25.309Z,99889.84
2022-12-20T00:09:58.494Z,99894.03
2022-12-20T00:12:29.209Z,99884.41
2022-12-20T00:15:09.379Z,99886.28
2022-12-20T00:17:43.123Z,99887.09
2022-12-20T00:20:17.642Z,99890.44
2022-12-20T00:22:48.299Z,99885.44
2022-12-20T00:25:22.135Z,99865.97
2022-12-20T00:27:53.815Z,99865.28
2022-12-20T00:30:27.364Z,99868.00
2022-12-20T00:32:57.377Z,99880.19
2022-12-20T00:35:28.628Z,99871.41
2022-12-20T00:38:02.952Z,99868.28
2022-12-20T00:40:33.091Z,99868.50
2022-12-20T00:43:04.216Z,99869.72
2022-12-20T00:45:41.636Z,99874.31
2022-12-20T00:48:19.969Z,99866.34
2022-12-20T00:50:47.644Z,99871.81
2022-12-20T00:53:24.500Z,99863.00
2022-12-20T00:56:07.407Z,99865.09
2022-12-20T00:58:45.870Z,99874.31
2022-12-20T01:01:35.075Z,99868.06
2022-12-20T01:04:09.922Z,99875.16
2022-12-20T01:06:48.250Z,99858.81
2022-12-20T01:09:32.850Z,99860.47
2022-12-20T01:12:03.868Z,99856.50
2022-12-20T01:14:36.664Z,99851.69
2022-12-20T01:17:06.660Z,99854.03
2022-12-20T01:19:37.684Z,99847.50
2022-12-20T01:22:08.831Z,99849.19
2022-12-20T01:24:46.367Z,99850.44
2022-12-20T01:27:17.252Z,99846.88
2022-12-20T01:32:36.075Z,99848.78
2022-12-20T01:35:24.458Z,99860.31
2022-12-20T01:37:58.263Z,99847.53
2022-12-20T01:40:42.778Z,99832.03
2022-12-20T01:43:18.407Z,99838.53
2022-12-20T01:45:57.318Z,99836.66
2022-12-20T01:48:28.261Z,99834.97
2022-12-20T01:51:02.483Z,99832.44
2022-12-20T01:53:30.329Z,99828.69
2022-12-20T01:56:06.741Z,99817.56
2022-12-20T01:58:43.770Z,99810.88
2022-12-20T02:01:22.775Z,99822.19
2022-12-20T02:03:56.102Z,99816.94
2022-12-20T02:06:30.010Z,99782.00
2022-12-20T02:12:16.537Z,99808.56
2022-12-20T02:15:14.418Z,99800.63
2022-12-20T02:18:19.729Z,99796.22
2022-12-20T02:21:18.698Z,99797.28
2022-12-20T02:23:47.538Z,99791.59
2022-12-20T02:26:53.944Z,99774.03
2022-12-20T02:29:49.340Z,99774.22
2022-12-20T02:32:34.460Z,99765.03
2022-12-20T02:35:08.651Z,99772.75
2022-12-20T02:38:02.268Z,99762.47
2022-12-20T02:40:51.310Z,99760.75
2022-12-20T02:43:44.606Z,99762.22
2022-12-20T02:46:17.868Z,99758.03
2022-12-20T02:48:51.887Z,99767.06
2022-12-20T02:51:30.475Z,99764.78
2022-12-20T02:54:22.554Z,99757.47
2022-12-20T02:57:00.851Z,99755.59
2022-12-20T02:59:56.120Z,99756.41
2022-12-20T03:02:30.527Z,99748.84
2022-12-20T03:05:16.037Z,99737.13
2022-12-20T03:07:46.117Z,99739.78
2022-12-20T03:10:20.185Z,99733.53
2022-12-20T03:13:02.155Z,99726.41
2022-12-20T03:15:39.252Z,99724.56
2022-12-20T03:18:11.800Z,99727.91
2022-12-20T03:20:43.486Z,99728.34
2022-12-20T03:23:14.387Z,99727.94
2022-12-20T03:25:46.111Z,99725.88
2022-12-20T03:28:32.707Z,99726.50
2022-12-20T03:31:06.820Z,99726.50
2022-12-20T03:33:52.937Z,99718.59
2022-12-20T03:36:27.322Z,99729.88
2022-12-20T03:39:05.320Z,99727.78
2022-12-20T03:41:43.417Z,99722.09
2022-12-20T03:44:16.024Z,99712.81
2022-12-20T03:46:56.810Z,99719.38
2022-12-20T03:49:28.330Z,99729.66
2022-12-20T03:52:07.524Z,99729.25
2022-12-20T03:54:38.325Z,99726.72
2022-12-20T03:57:25.875Z,99717.94
2022-12-20T04:03:10.620Z,99717.31
2022-12-20T04:05:44.194Z,99711.41
2022-12-20T04:08:12.804Z,99693.41
2022-12-20T04:10:59.528Z,99704.31
2022-12-20T04:13:35.202Z,99705.53
2022-12-20T04:16:14.506Z,99708.88
2022-12-20T04:18:54.212Z,99714.34
2022-12-20T04:21:42.090Z,99712.66
2022-12-20T04:24:35.538Z,99696.75
2022-12-20T04:27:27.827Z,99695.91
2022-12-20T04:30:18.175Z,99696.56
2022-12-20T04:33:15.373Z,99649.97
2022-12-20T04:35:47.977Z,99708.69
2022-12-20T04:38:19.351Z,99696.31
2022-12-20T04:40:58.063Z,99692.19
2022-12-20T04:44:04.950Z,99689.88
2022-12-20T04:46:55.497Z,99684.41
2022-12-20T04:49:41.648Z,99687.97
2022-12-20T04:52:27.431Z,99687.97
2022-12-20T04:55:01.651Z,99687.94
2022-12-20T04:57:36.371Z,99689.84
2022-12-20T05:00:08.754Z,99686.75
2022-12-20T05:02:44.020Z,99673.97
2022-12-20T05:05:25.259Z,99691.31
2022-12-20T05:07:59.567Z,99691.38
2022-12-20T05:10:31.658Z,99690.47
2022-12-20T05:13:09.561Z,99689.66
2022-12-20T05:15:55.254Z,99681.47
2022-12-20T05:18:35.783Z,99682.78
2022-12-20T05:21:27.751Z,99675.47
2022-12-20T05:24:16.436Z,99672.53
2022-12-20T05:26:59.166Z,99667.91
2022-12-20T05:29:29.661Z,99669.63
2022-12-20T05:32:01.182Z,99667.72
2022-12-20T05:34:31.368Z,99659.38
2022-12-20T05:37:05.844Z,99654.09
2022-12-20T05:42:30.646Z,99663.72
2022-12-20T05:45:18.745Z,99658.50
2022-12-20T05:47:59.625Z,99663.06
2022-12-20T05:50:34.783Z,99666.63
2022-12-20T05:53:31.263Z,99666.41
2022-12-20T05:56:05.707Z,99670.38
2022-12-20T05:58:46.167Z,99666.19
2022-12-20T06:01:17.559Z,99663.25
2022-12-20T06:03:53.845Z,99658.66
2022-12-20T06:06:35.900Z,99652.78
2022-12-20T06:09:07.393Z,99657.16
2022-12-20T06:11:58.491Z,99654.66
2022-12-20T06:14:32.100Z,99651.09
2022-12-20T06:17:06.117Z,99655.44
2022-12-20T06:19:36.071Z,99659.63
2022-12-20T06:22:05.319Z,99648.13
2022-12-20T06:24:48.600Z,99647.91
2022-12-20T06:27:25.062Z,99647.94
2022-12-20T06:30:09.932Z,99657.13
2022-12-20T06:32:58.997Z,99649.00
2022-12-20T06:35:32.776Z,99642.09
2022-12-20T06:38:10.054Z,99640.44
2022-12-20T06:40:47.611Z,99649.38
2022-12-20T06:43:16.044Z,99637.91
2022-12-20T06:45:52.423Z,99633.22
2022-12-20T06:53:58.198Z,99643.25
2022-12-20T06:56:40.802Z,99648.66
2022-12-20T06:59:14.726Z,99649.75
2022-12-20T07:01:45.582Z,99645.56
2022-12-20T07:04:16.993Z,99658.53
2022-12-20T07:07:00.463Z,99653.13
2022-12-20T07:09:30.707Z,99658.56
2022-12-20T07:12:02.152Z,99656.06
2022-12-20T07:14:33.642Z,99653.03
2022-12-20T07:17:07.414Z,99649.69
2022-12-20T07:19:45.623Z,99650.53
2022-12-20T07:22:29.349Z,99625.38
2022-12-20T07:25:03.104Z,99626.69
2022-12-20T07:27:33.551Z,99630.63
2022-12-20T07:30:05.086Z,99626.28
2022-12-20T07:32:42.453Z,99639.28
2022-12-20T07:35:21.121Z,99626.28
2022-12-20T07:37:55.835Z,99629.00
2022-12-20T07:40:26.196Z,99628.56
2022-12-20T07:42:59.749Z,99624.91
2022-12-20T07:48:16.380Z,99635.00
2022-12-20T07:50:58.299Z,99638.31
2022-12-20T07:53:30.860Z,99624.13
2022-12-20T07:56:03.787Z,99626.19
2022-12-20T07:58:38.087Z,99632.47
2022-12-20T08:01:08.972Z,99626.34
2022-12-20T08:04:08.294Z,99621.97
2022-12-20T08:06:40.739Z,99618.97
2022-12-20T08:09:15.013Z,99630.50
2022-12-20T08:11:47.273Z,99630.31
2022-12-20T08:14:33.510Z,99630.47
2022-12-20T08:17:05.627Z,99625.63
2022-12-20T08:19:37.615Z,99630.41
2022-12-20T08:22:07.193Z,99634.94
2022-12-20T08:27:25.911Z,99638.94
2022-12-20T08:29:57.325Z,99635.56
2022-12-20T08:32:27.374Z,99624.25
2022-12-20T08:37:44.857Z,99635.28
2022-12-20T08:40:18.666Z,99639.03
2022-12-20T08:43:06.546Z,99635.47
2022-12-20T08:45:49.087Z,99632.38
2022-12-20T08:48:26.069Z,99629.28
2022-12-20T08:51:03.393Z,99624.38
2022-12-20T08:53:41.089Z,99629.88
2022-12-20T08:56:20.058Z,99627.50
2022-12-20T08:58:53.483Z,99633.06
2022-12-20T09:01:23.924Z,99628.28
2022-12-20T09:04:04.300Z,99620.16
2022-12-20T09:06:34.798Z,99620.41
2022-12-20T09:09:15.640Z,99624.09
2022-12-20T09:11:48.763Z,99626.94
2022-12-20T09:14:29.630Z,99619.19
2022-12-20T09:17:05.226Z,99625.44
2022-12-20T09:19:36.866Z,99621.09
2022-12-20T09:22:09.944Z,99616.75
2022-12-20T09:24:44.766Z,99614.94
2022-12-20T09:27:18.603Z,99615.91
2022-12-20T09:29:53.973Z,99608.34
2022-12-20T09:32:27.892Z,99599.84
2022-12-20T09:34:58.115Z,99619.09
2022-12-20T09:37:36.651Z,99616.44
2022-12-20T09:40:07.438Z,99613.88
2022-12-20T09:42:45.334Z,99602.50
2022-12-20T09:45:26.668Z,99593.47
2022-12-20T09:47:59.759Z,99593.53
2022-12-20T09:50:47.203Z,99588.66
2022-12-20T09:53:29.493Z,99594.50
2022-12-20T09:56:12.121Z,99576.38
2022-12-20T09:59:09.212Z,99585.41
2022-12-20T10:01:44.166Z,99579.91
2022-12-20T10:04:34.188Z,99583.75
2022-12-20T10:07:58.813Z,99568.03
2022-12-20T10:10:32.415Z,99564.38
2022-12-20T10:13:34.059Z,99559.88
2022-12-20T10:16:34.696Z,99546.88
2022-12-20T10:19:53.144Z,99548.50
2022-12-20T10:22:27.164Z,99547.56
2022-12-20T10:25:05.320Z,99524.53
2022-12-20T10:27:41.802Z,99540.81
2022-12-20T10:30:22.471Z,99533.25
2022-12-20T10:32:53.896Z,99531.81
2022-12-20T10:35:43.312Z,99523.50
2022-12-20T10:38:20.136Z,99526.75
2022-12-20T10:41:23.067Z,99522.47
2022-12-20T10:44:06.282Z,99519.00
2022-12-20T10:47:03.011Z,99503.78
2022-12-20T10:49:44.459Z,99505.44
2022-12-20T10:52:19.909Z,99497.91
2022-12-20T10:54:49.612Z,99495.59
2022-12-20T10:57:39.226Z,99479.16
2022-12-20T11:00:11.546Z,99471.03
2022-12-20T11:02:43.105Z,99468.00
2022-12-20T11:05:25.920Z,99467.84
2022-12-20T11:08:44.367Z,99460.56
2022-12-20T11:11:32.687Z,99459.19
2022-12-20T11:14:18.103Z,99455.00
2022-12-20T11:16:54.024Z,99445.25
2022-12-20T11:20:14.175Z,99446.69
2022-12-20T11:23:08.591Z,99442.50
2022-12-20T11:26:05.533Z,99441.88
2022-12-20T11:28:54.624Z,99435.00
2022-12-20T11:32:04.766Z,99433.47
2022-12-20T11:35:29.021Z,99423.91
2022-12-20T11:39:10.685Z,99415.47
2022-12-20T11:41:57.142Z,99410.50
2022-12-20T11:45:09.711Z,99419.81
2022-12-20T11:48:18.893Z,99402.94
2022-12-20T11:51:13.371Z,99403.19
2022-12-20T11:54:18.288Z,99405.69
2022-12-20T11:56:58.976Z,99394.66
2022-12-20T12:00:11.245Z,99391.97
2022-12-20T12:03:24.882Z,99387.72
2022-12-20T12:06:03.674Z,99386.03
2022-12-20T12:09:02.945Z,99391.63
2022-12-20T12:15:16.110Z,99387.53
2022-12-20T12:18:19.587Z,99371.81
2022-12-20T12:21:09.856Z,99378.09
2022-12-20T12:24:27.741Z,99369.09
2022-12-20T12:27:11.287Z,99366.59
2022-12-20T12:29:50.729Z,99360.06
2022-12-20T12:32:50.780Z,99357.31
2022-12-20T12:35:40.108Z,99352.03
2022-12-20T12:38:46.470Z,99345.81
2022-12-20T12:41:49.968Z,99345.81
2022-12-20T12:44:49.396Z,99349.06
2022-12-20T12:47:48.914Z,99348.81
2022-12-20T12:50:39.781Z,99335.88
2022-12-20T12:53:28.114Z,99335.03
2022-12-20T12:56:19.394Z,99329.22
2022-12-20T12:59:12.060Z,99332.06
2022-12-20T13:02:20.368Z,99328.88
2022-12-20T13:05:24.003Z,99330.53
2022-12-20T13:07:56.637Z,99301.91
2022-12-20T13:10:37.696Z,99330.75
2022-12-20T13:13:17.804Z,99327.59
2022-12-20T13:15:55.814Z,99321.06
2022-12-20T13:18:31.799Z,99319.16
2022-12-20T13:21:29.490Z,99321.75
2022-12-20T13:24:38.191Z,99326.03
2022-12-20T13:27:45.167Z,99326.97
2022-12-20T13:30:25.469Z,99328.88
2022-12-20T13:33:07.258Z,99318.41
2022-12-20T13:36:09.937Z,99315.81
2022-12-20T13:38:40.931Z,99308.81
2022-12-20T13:41:51.653Z,99307.28
2022-12-20T13:44:40.627Z,99301.31
2022-12-20T13:47:40.500Z,99305.84
2022-12-20T13:50:36.542Z,99301.31
2022-12-20T13:53:05.730Z,99312.50
2022-12-20T13:55:46.748Z,99310.97
2022-12-20T13:58:31.896Z,99301.94
2022-12-20T14:01:26.553Z,99302.75
2022-12-20T14:04:00.372Z,99299.44
2022-12-20T14:06:31.463Z,99297.19
2022-12-20T14:09:06.533Z,99299.78
2022-12-20T14:11:47.467Z,99290.97
2022-12-20T14:14:18.899Z,99290.97
2022-12-20T14:16:50.188Z,99278.75
2022-12-20T14:19:24.390Z,99286.38
2022-12-20T14:21:58.975Z,99298.25
2022-12-20T14:24:30.717Z,99287.91
2022-12-20T14:29:49.617Z,99285.88
2022-12-20T14:32:34.183Z,99286.50
2022-12-20T14:35:08.366Z,99290.88
2022-12-20T14:37:39.177Z,99293.00
2022-12-20T14:40:22.280Z,99278.88
2022-12-20T14:42:52.770Z,99284.19
2022-12-20T14:45:33.789Z,99278.28
2022-12-20T14:48:25.543Z,99277.81
2022-12-20T14:51:04.534Z,99271.75
2022-12-20T14:53:39.610Z,99275.91
2022-12-20T14:56:23.827Z,99267.50
2022-12-20T14:59:32.609Z,99270.56
2022-12-20T15:02:35.479Z,99259.28
2022-12-20T15:06:01.442Z,99260.72
2022-12-20T15:08:34.128Z,99259.28
2022-12-20T15:11:32.325Z,99257.13
2022-12-20T15:14:05.099Z,99234.22
2022-12-20T15:16:34.070Z,99245.41
2022-12-20T15:19:06.376Z,99235.41
2022-12-20T15:21:43.092Z,99251.47
2022-12-20T15:24:19.959Z,99254.28
2022-12-20T15:26:58.904Z,99248.97
2022-12-20T15:29:39.228Z,99254.53
2022-12-20T15:32:24.064Z,99254.78
2022-12-20T15:34:54.748Z,99265.34
2022-12-20T15:37:37.237Z,99239.94
2022-12-20T15:40:07.820Z,99256.53
2022-12-20T15:42:46.899Z,99252.75
2022-12-20T15:45:16.971Z,99246.69
2022-12-20T15:47:47.226Z,99247.75
2022-12-20T15:50:32.257Z,99255.59
2022-12-20T15:53:05.786Z,99244.31
2022-12-20T15:55:39.936Z,99245.97
2022-12-20T15:58:12.521Z,99240.16
2022-12-20T16:03:36.657Z,99237.22
2022-12-20T16:06:08.924Z,99247.66
2022-12-20T16:08:41.716Z,99244.44
2022-12-20T16:11:30.533Z,99241.72
2022-12-20T16:14:00.802Z,99244.78
2022-12-20T16:16:40.312Z,99228.75
2022-12-20T16:19:18.577Z,99231.00
2022-12-20T16:21:55.615Z,99235.19
2022-12-20T16:24:27.262Z,99233.88
2022-12-20T16:26:57.795Z,99225.19
2022-12-20T16:29:28.268Z,99227.09
2022-12-20T16:32:07.299Z,99240.00
2022-12-20T16:34:53.335Z,99249.78
2022-12-20T16:37:30.218Z,99243.13
2022-12-20T16:40:03.502Z,99247.03
2022-12-20T16:42:34.766Z,99241.81
2022-12-20T16:45:11.019Z,99240.25
2022-12-20T16:47:55.373Z,99249.78
2022-12-20T16:50:27.800Z,99255.34
2022-12-20T16:52:58.560Z,99249.63
2022-12-20T16:55:39.761Z,99248.56
2022-12-20T16:58:10.795Z,99250.47
2022-12-20T17:00:44.338Z,99227.91
2022-12-20T17:03:12.100Z,99242.31
2022-12-20T17:05:46.522Z,99241.47
2022-12-20T17:11:09.044Z,99245.38
2022-12-20T17:16:24.698Z,99250.59
2022-12-20T17:19:02.675Z,99229.94
2022-12-20T17:24:37.907Z,99244.06
2022-12-20T17:27:19.770Z,99249.78
2022-12-20T17:29:50.052Z,99255.72
2022-12-20T17:32:32.369Z,99241.22
2022-12-20T17:35:02.968Z,99243.00
2022-12-20T17:37:35.741Z,99251.53
2022-12-20T17:40:10.916Z,99249.38
2022-12-20T17:42:44.125Z,99240.50
2022-12-20T17:45:37.619Z,99249.16
2022-12-20T17:48:10.329Z,99245.81
2022-12-20T17:50:43.619Z,99255.81
2022-12-20T17:53:17.207Z,99251.53
2022-12-20T17:55:47.812Z,99256.31
2022-12-20T17:58:18.281Z,99257.81
2022-12-20T18:00:46.584Z,99257.09
2022-12-20T18:04:01.675Z,99255.56
2022-12-20T18:06:27.169Z,99248.69
2022-12-20T18:09:05.635Z,99255.34
2022-12-20T18:11:41.006Z,99249.38
2022-12-20T18:14:26.789Z,99254.16
2022-12-20T18:17:02.302Z,99249.16
2022-12-20T18:19:46.103Z,99246.41
2022-12-20T18:22:21.783Z,99248.06
2022-12-20T18:24:53.257Z,99250.22
2022-12-20T18:27:28.676Z,99235.25
2022-12-20T18:30:12.920Z,99244.06
2022-12-20T18:32:55.653Z,99250.34
2022-12-20T18:35:26.176Z,99232.88
2022-12-20T18:37:56.757Z,99236.69
2022-12-20T18:40:30.447Z,99238.34
2022-12-20T18:43:05.854Z,99236.06
2022-12-20T18:45:35.845Z,99233.81
2022-12-20T18:48:06.096Z,99235.03
2022-12-20T18:50:41.084Z,99226.34
2022-12-20T18:53:09.217Z,99222.38
2022-12-20T18:55:45.860Z,99227.75
2022-12-20T18:58:14.445Z,99234.41
2022-12-20T19:00:47.452Z,99225.63
2022-12-20T19:03:18.963Z,99217.66
2022-12-20T19:05:58.935Z,99218.50
2022-12-20T19:08:35.750Z,99218.75
2022-12-20T19:11:16.711Z,99206.75
2022-12-20T19:13:45.124Z,99219.31
2022-12-20T19:16:22.495Z,99226.81
2022-12-20T19:18:59.540Z,99218.16
2022-12-20T19:21:31.271Z,99216.28
2022-12-20T19:24:10.042Z,99209.34
2022-12-20T19:26:40.243Z,99211.38
2022-12-20T19:29:15.590Z,99205.81
2022-12-20T19:31:47.882Z,99199.84
2022-12-20T19:34:18.661Z,99192.25
2022-12-20T19:36:52.363Z,99199.94
2022-12-20T19:39:25.640Z,99194.63
2022-12-20T19:44:52.558Z,99181.56
2022-12-20T19:47:35.329Z,99197.69
2022-12-20T19:50:11.605Z,99200.66
2022-12-20T19:52:45.202Z,99201.97
2022-12-20T19:55:14.540Z,99198.75
2022-12-20T19:57:46.024Z,99200.66
2022-12-20T20:00:16.759Z,99196.84
2022-12-20T20:02:52.716Z,99186.59
2022-12-20T20:05:33.747Z,99189.25
2022-12-20T20:08:04.934Z,99188.41
2022-12-20T20:10:42.735Z,99183.44
2022-12-20T20:13:10.707Z,99172.50
2022-12-20T20:15:39.488Z,99180.81
2022-12-20T20:18:09.492Z,99184.84
2022-12-20T20:20:41.834Z,99165.88
2022-12-20T20:23:12.441Z,99177.31
2022-12-20T20:25:59.569Z,99174.00
2022-12-20T20:28:33.950Z,99180.66
2022-12-20T20:31:10.119Z,99174.59
2022-12-20T20:33:46.955Z,99154.78
2022-12-20T20:36:34.461Z,99178.28
2022-12-20T20:39:08.600Z,99172.81
2022-12-20T20:41:53.411Z,99165.91
2022-12-20T20:44:27.470Z,99169.84
2022-12-20T20:46:58.630Z,99168.25
2022-12-20T20:49:33.618Z,99162.72
2022-12-20T20:52:01.494Z,99160.56
2022-12-20T20:54:31.830Z,99164.97
2022-12-20T20:57:03.695Z,99161.63
2022-12-20T20:59:36.482Z,99168.38
2022-12-20T21:05:24.605Z,99165.44
2022-12-20T21:07:48.280Z,99159.16
2022-12-20T21:10:23.399Z,99160.31
2022-12-20T21:13:07.302Z,99150.53
2022-12-20T21:15:45.063Z,99130.03
2022-12-20T21:18:16.937Z,99136.19
2022-12-20T21:20:53.059Z,99135.66
2022-12-20T21:26:10.982Z,99131.31
2022-12-20T21:28:49.542Z,99135.84
2022-12-20T21:31:26.703Z,99132.47
2022-12-20T21:33:59.153Z,99124.44
2022-12-20T21:36:29.684Z,99115.78
2022-12-20T21:39:00.839Z,99119.19
2022-12-20T21:41:37.808Z,99121.44
2022-12-20T21:44:19.829Z,99117.63
2022-12-20T21:46:54.106Z,99117.53
2022-12-20T21:49:27.112Z,99113.50
2022-12-20T21:52:03.225Z,99107.91
2022-12-20T21:54:35.852Z,99111.19
2022-12-20T21:57:06.269Z,99112.84
2022-12-20T21:59:40.995Z,99108.63
2022-12-20T22:02:11.466Z,99115.16
2022-12-20T22:04:40.987Z,99098.50
2022-12-20T22:07:11.942Z,99101.31
2022-12-20T22:09:42.901Z,99096.75
2022-12-20T22:12:13.999Z,99093.13
2022-12-20T22:14:45.598Z,99087.81
2022-12-20T22:17:19.167Z,99082.69
2022-12-20T22:19:53.107Z,99086.50
2022-12-20T22:22:32.473Z,99082.44
2022-12-20T22:25:03.678Z,99076.72
2022-12-20T22:27:42.610Z,99077.78
2022-12-20T22:30:29.703Z,99069.84
2022-12-20T22:33:03.963Z,99080.19
2022-12-20T22:35:43.283Z,99065.69
2022-12-20T22:38:13.877Z,99071.16
2022-12-20T22:40:52.848Z,99070.81
2022-12-20T22:43:22.873Z,99067.34
2022-12-20T22:46:09.589Z,99068.69
2022-12-20T22:48:47.980Z,99050.94
2022-12-20T22:51:32.384Z,99059.16
2022-12-20T22:54:02.934Z,99053.81
2022-12-20T22:59:17.805Z,99049.38
2022-12-20T23:02:00.623Z,99048.88
2022-12-20T23:04:32.973Z,99038.50
2022-12-20T23:07:04.359Z,99032.97
2022-12-20T23:09:38.286Z,99032.81
2022-12-20T23:12:24.912Z,99034.81
2022-12-20T23:15:14.253Z,99028.91
2022-12-20T23:17:44.668Z,99031.16
2022-12-20T23:20:33.953Z,99021.34
2022-12-20T23:25:57.064Z,99014.66
2022-12-20T23:28:31.505Z,99016.31
2022-12-20T23:31:05.899Z,99000.56
2022-12-20T23:33:37.381Z,98996.53
2022-12-20T23:36:07.928Z,98997.00
2022-12-20T23:38:43.633Z,98988.78
2022-12-20T23:41:18.886Z,98980.34
2022-12-20T23:43:49.235Z,98968.31
2022-12-20T23:46:23.944Z,98970.59
2022-12-20T23:49:03.563Z,98966.19
2022-12-20T23:51:31.547Z,98960.31
2022-12-20T23:54:09.296Z,98960.56
2022-12-20T23:56:37.553Z,98963.28
2022-12-20T23:59:08.962Z,98951.78
